sensor_id;sensor_type;location;lat;lon;timestamp;temperature;humidity
69359;HTU21D;56520;49.066;8.660;2023-05-29T00:01:24;11.75;82.18
69359;HTU21D;56520;49.066;8.660;2023-05-29T00:03:51;11.73;82.69
69359;HTU21D;56520;49.066;8.660;2023-05-29T00:06:17;11.71;82.36
69359;HTU21D;56520;49.066;8.660;2023-05-29T00:08:43;11.69;82.11
69359;HTU21D;56520;49.066;8.660;2023-05-29T00:11:08;11.68;81.82
69359;HTU21D;56520;49.066;8.660;2023-05-29T00:13:34;11.69;81.92
69359;HTU21D;56520;49.066;8.660;2023-05-29T00:15:59;11.68;82.09
69359;HTU21D;56520;49.066;8.660;2023-05-29T00:18:26;11.66;82.17
69359;HTU21D;56520;49.066;8.660;2023-05-29T00:20:52;11.62;82.63
69359;HTU21D;56520;49.066;8.660;2023-05-29T00:23:18;11.60;83.13
69359;HTU21D;56520;49.066;8.660;2023-05-29T00:25:43;11.57;82.76
69359;HTU21D;56520;49.066;8.660;2023-05-29T00:28:09;11.54;82.94
69359;HTU21D;56520;49.066;8.660;2023-05-29T00:30:35;11.51;83.00
69359;HTU21D;56520;49.066;8.660;2023-05-29T00:33:00;11.48;83.10
69359;HTU21D;56520;49.066;8.660;2023-05-29T00:35:26;11.48;82.81
69359;HTU21D;56520;49.066;8.660;2023-05-29T00:37:51;11.46;82.69
69359;HTU21D;56520;49.066;8.660;2023-05-29T00:40:17;11.45;82.73
69359;HTU21D;56520;49.066;8.660;2023-05-29T00:42:42;11.45;82.60
69359;HTU21D;56520;49.066;8.660;2023-05-29T00:45:08;11.47;82.25
69359;HTU21D;56520;49.066;8.660;2023-05-29T00:47:34;11.46;82.00
69359;HTU21D;56520;49.066;8.660;2023-05-29T00:49:59;11.45;82.07
69359;HTU21D;56520;49.066;8.660;2023-05-29T00:52:26;11.45;81.97
69359;HTU21D;56520;49.066;8.660;2023-05-29T00:54:52;11.44;82.02
69359;HTU21D;56520;49.066;8.660;2023-05-29T00:57:18;11.47;82.11
69359;HTU21D;56520;49.066;8.660;2023-05-29T00:59:45;11.46;82.34
69359;HTU21D;56520;49.066;8.660;2023-05-29T01:02:11;11.46;82.35
69359;HTU21D;56520;49.066;8.660;2023-05-29T01:04:38;11.44;82.62
69359;HTU21D;56520;49.066;8.660;2023-05-29T01:07:04;11.39;82.44
69359;HTU21D;56520;49.066;8.660;2023-05-29T01:09:30;11.36;82.39
69359;HTU21D;56520;49.066;8.660;2023-05-29T01:28:44;11.10;83.51
69359;HTU21D;56520;49.066;8.660;2023-05-29T01:31:12;11.08;83.43
69359;HTU21D;56520;49.066;8.660;2023-05-29T01:33:39;11.07;83.36
69359;HTU21D;56520;49.066;8.660;2023-05-29T01:36:07;11.08;83.45
69359;HTU21D;56520;49.066;8.660;2023-05-29T01:38:33;11.05;83.78
69359;HTU21D;56520;49.066;8.660;2023-05-29T01:40:59;11.02;84.07
69359;HTU21D;56520;49.066;8.660;2023-05-29T01:43:25;10.99;83.89
69359;HTU21D;56520;49.066;8.660;2023-05-29T01:45:51;10.93;83.83
69359;HTU21D;56520;49.066;8.660;2023-05-29T01:48:17;10.89;83.99
69359;HTU21D;56520;49.066;8.660;2023-05-29T01:50:43;10.86;83.85
69359;HTU21D;56520;49.066;8.660;2023-05-29T01:53:09;10.85;84.12
69359;HTU21D;56520;49.066;8.660;2023-05-29T01:55:35;10.82;83.97
69359;HTU21D;56520;49.066;8.660;2023-05-29T01:58:01;10.80;84.16
69359;HTU21D;56520;49.066;8.660;2023-05-29T02:00:26;10.79;84.10
69359;HTU21D;56520;49.066;8.660;2023-05-29T02:02:52;10.77;84.14
69359;HTU21D;56520;49.066;8.660;2023-05-29T02:05:17;10.77;84.11
69359;HTU21D;56520;49.066;8.660;2023-05-29T02:07:43;10.74;83.90
69359;HTU21D;56520;49.066;8.660;2023-05-29T02:10:08;10.72;83.96
69359;HTU21D;56520;49.066;8.660;2023-05-29T02:12:34;10.71;84.07
69359;HTU21D;56520;49.066;8.660;2023-05-29T02:14:59;10.69;83.96
69359;HTU21D;56520;49.066;8.660;2023-05-29T02:17:25;10.67;83.96
69359;HTU21D;56520;49.066;8.660;2023-05-29T02:19:50;10.65;84.07
69359;HTU21D;56520;49.066;8.660;2023-05-29T02:22:17;10.64;84.10
69359;HTU21D;56520;49.066;8.660;2023-05-29T02:24:43;10.62;84.25
69359;HTU21D;56520;49.066;8.660;2023-05-29T02:27:08;10.62;84.26
69359;HTU21D;56520;49.066;8.660;2023-05-29T02:29:34;10.60;84.16
69359;HTU21D;56520;49.066;8.660;2023-05-29T02:32:00;10.59;85.03
69359;HTU21D;56520;49.066;8.660;2023-05-29T02:34:25;10.55;85.32
69359;HTU21D;56520;49.066;8.660;2023-05-29T02:36:52;10.43;86.07
69359;HTU21D;56520;49.066;8.660;2023-05-29T02:39:18;10.29;86.82
69359;HTU21D;56520;49.066;8.660;2023-05-29T02:41:43;10.18;86.78
69359;HTU21D;56520;49.066;8.660;2023-05-29T02:44:09;10.09;86.45
69359;HTU21D;56520;49.066;8.660;2023-05-29T02:46:34;10.04;86.22
69359;HTU21D;56520;49.066;8.660;2023-05-29T02:49:00;10.00;86.16
69359;HTU21D;56520;49.066;8.660;2023-05-29T02:51:25;9.97;86.11
69359;HTU21D;56520;49.066;8.660;2023-05-29T02:53:52;9.95;86.08
69359;HTU21D;56520;49.066;8.660;2023-05-29T02:56:17;9.94;85.98
69359;HTU21D;56520;49.066;8.660;2023-05-29T02:58:43;9.91;86.02
69359;HTU21D;56520;49.066;8.660;2023-05-29T03:01:08;9.88;86.04
69359;HTU21D;56520;49.066;8.660;2023-05-29T03:03:34;9.84;86.29
69359;HTU21D;56520;49.066;8.660;2023-05-29T03:05:59;9.84;86.62
69359;HTU21D;56520;49.066;8.660;2023-05-29T03:08:26;9.82;86.39
69359;HTU21D;56520;49.066;8.660;2023-05-29T03:10:53;9.81;86.41
69359;HTU21D;56520;49.066;8.660;2023-05-29T03:13:18;9.77;86.40
69359;HTU21D;56520;49.066;8.660;2023-05-29T03:15:44;9.74;86.38
69359;HTU21D;56520;49.066;8.660;2023-05-29T03:18:09;9.72;86.40
69359;HTU21D;56520;49.066;8.660;2023-05-29T03:20:35;9.69;86.29
69359;HTU21D;56520;49.066;8.660;2023-05-29T03:23:00;9.67;86.28
69359;HTU21D;56520;49.066;8.660;2023-05-29T03:25:26;9.68;86.32
69359;HTU21D;56520;49.066;8.660;2023-05-29T03:27:51;9.68;86.25
69359;HTU21D;56520;49.066;8.660;2023-05-29T03:30:17;9.64;86.12
69359;HTU21D;56520;49.066;8.660;2023-05-29T03:32:43;9.62;86.12
69359;HTU21D;56520;49.066;8.660;2023-05-29T03:35:12;9.65;86.14
69359;HTU21D;56520;49.066;8.660;2023-05-29T03:37:37;9.63;86.11
69359;HTU21D;56520;49.066;8.660;2023-05-29T03:40:03;9.67;86.19
69359;HTU21D;56520;49.066;8.660;2023-05-29T03:42:29;9.70;86.29
69359;HTU21D;56520;49.066;8.660;2023-05-29T03:44:56;9.74;86.31
69359;HTU21D;56520;49.066;8.660;2023-05-29T03:47:22;9.76;86.15
69359;HTU21D;56520;49.066;8.660;2023-05-29T03:49:47;9.76;86.20
69359;HTU21D;56520;49.066;8.660;2023-05-29T03:52:13;9.76;86.12
69359;HTU21D;56520;49.066;8.660;2023-05-29T03:54:38;9.75;86.08
69359;HTU21D;56520;49.066;8.660;2023-05-29T03:57:04;9.79;86.45
69359;HTU21D;56520;49.066;8.660;2023-05-29T03:59:30;9.83;86.31
69359;HTU21D;56520;49.066;8.660;2023-05-29T04:01:55;9.84;86.12
69359;HTU21D;56520;49.066;8.660;2023-05-29T04:04:21;9.88;86.27
69359;HTU21D;56520;49.066;8.660;2023-05-29T04:06:46;9.91;86.19
69359;HTU21D;56520;49.066;8.660;2023-05-29T04:09:12;9.97;86.09
69359;HTU21D;56520;49.066;8.660;2023-05-29T04:11:37;9.96;86.00
69359;HTU21D;56520;49.066;8.660;2023-05-29T04:14:04;9.97;86.04
69359;HTU21D;56520;49.066;8.660;2023-05-29T04:16:30;9.99;86.13
69359;HTU21D;56520;49.066;8.660;2023-05-29T04:18:55;10.04;86.36
69359;HTU21D;56520;49.066;8.660;2023-05-29T04:21:21;10.07;86.33
69359;HTU21D;56520;49.066;8.660;2023-05-29T04:23:46;10.13;86.33
69359;HTU21D;56520;49.066;8.660;2023-05-29T04:26:12;10.18;86.08
69359;HTU21D;56520;49.066;8.660;2023-05-29T04:28:38;10.19;85.92
69359;HTU21D;56520;49.066;8.660;2023-05-29T04:31:04;10.18;85.93
69359;HTU21D;56520;49.066;8.660;2023-05-29T04:33:31;10.18;85.94
69359;HTU21D;56520;49.066;8.660;2023-05-29T04:35:57;10.20;85.90
69359;HTU21D;56520;49.066;8.660;2023-05-29T04:38:26;10.22;85.89
69359;HTU21D;56520;49.066;8.660;2023-05-29T04:40:52;10.28;85.93
69359;HTU21D;56520;49.066;8.660;2023-05-29T04:43:18;10.39;85.85
69359;HTU21D;56520;49.066;8.660;2023-05-29T04:45:43;10.48;85.69
69359;HTU21D;56520;49.066;8.660;2023-05-29T04:48:09;10.53;85.58
69359;HTU21D;56520;49.066;8.660;2023-05-29T04:50:34;10.60;85.35
69359;HTU21D;56520;49.066;8.660;2023-05-29T04:53:01;10.65;85.31
69359;HTU21D;56520;49.066;8.660;2023-05-29T04:55:27;10.69;85.29
69359;HTU21D;56520;49.066;8.660;2023-05-29T04:57:53;10.75;85.38
69359;HTU21D;56520;49.066;8.660;2023-05-29T05:00:18;10.84;85.21
69359;HTU21D;56520;49.066;8.660;2023-05-29T05:02:44;10.92;85.15
69359;HTU21D;56520;49.066;8.660;2023-05-29T05:05:10;11.00;85.00
69359;HTU21D;56520;49.066;8.660;2023-05-29T05:07:36;11.08;84.79
69359;HTU21D;56520;49.066;8.660;2023-05-29T05:10:05;11.15;84.56
69359;HTU21D;56520;49.066;8.660;2023-05-29T05:12:31;11.18;84.32
69359;HTU21D;56520;49.066;8.660;2023-05-29T05:14:57;11.24;84.12
69359;HTU21D;56520;49.066;8.660;2023-05-29T05:17:22;11.30;83.93
69359;HTU21D;56520;49.066;8.660;2023-05-29T05:19:48;11.34;83.84
69359;HTU21D;56520;49.066;8.660;2023-05-29T05:22:18;11.42;83.80
69359;HTU21D;56520;49.066;8.660;2023-05-29T05:24:44;11.49;83.84
69359;HTU21D;56520;49.066;8.660;2023-05-29T05:27:09;11.57;83.68
69359;HTU21D;56520;49.066;8.660;2023-05-29T05:29:35;11.64;83.39
69359;HTU21D;56520;49.066;8.660;2023-05-29T05:32:00;11.71;83.21
69359;HTU21D;56520;49.066;8.660;2023-05-29T05:34:25;11.77;83.13
69359;HTU21D;56520;49.066;8.660;2023-05-29T05:36:51;11.87;82.99
69359;HTU21D;56520;49.066;8.660;2023-05-29T05:39:16;11.96;82.80
69359;HTU21D;56520;49.066;8.660;2023-05-29T05:41:42;12.07;82.65
69359;HTU21D;56520;49.066;8.660;2023-05-29T05:44:07;12.19;82.37
69359;HTU21D;56520;49.066;8.660;2023-05-29T05:46:32;12.27;82.15
69359;HTU21D;56520;49.066;8.660;2023-05-29T05:48:58;12.36;81.96
69359;HTU21D;56520;49.066;8.660;2023-05-29T05:51:26;12.46;81.83
69359;HTU21D;56520;49.066;8.660;2023-05-29T05:53:52;12.53;81.67
69359;HTU21D;56520;49.066;8.660;2023-05-29T05:56:17;12.62;81.49
69359;HTU21D;56520;49.066;8.660;2023-05-29T05:58:42;12.70;81.29
69359;HTU21D;56520;49.066;8.660;2023-05-29T06:01:08;12.82;81.07
69359;HTU21D;56520;49.066;8.660;2023-05-29T06:03:34;13.02;80.48
69359;HTU21D;56520;49.066;8.660;2023-05-29T06:06:00;13.18;80.04
69359;HTU21D;56520;49.066;8.660;2023-05-29T06:08:25;13.32;79.59
69359;HTU21D;56520;49.066;8.660;2023-05-29T06:10:51;13.47;79.17
69359;HTU21D;56520;49.066;8.660;2023-05-29T06:13:16;13.59;78.81
69359;HTU21D;56520;49.066;8.660;2023-05-29T06:15:42;13.73;78.17
69359;HTU21D;56520;49.066;8.660;2023-05-29T06:18:08;13.89;78.01
69359;HTU21D;56520;49.066;8.660;2023-05-29T06:20:33;13.98;77.82
69359;HTU21D;56520;49.066;8.660;2023-05-29T06:22:59;14.10;77.13
69359;HTU21D;56520;49.066;8.660;2023-05-29T06:25:24;14.26;75.03
69359;HTU21D;56520;49.066;8.660;2023-05-29T06:27:58;14.43;75.18
69359;HTU21D;56520;49.066;8.660;2023-05-29T06:30:23;14.57;73.86
69359;HTU21D;56520;49.066;8.660;2023-05-29T06:32:49;14.79;73.12
69359;HTU21D;56520;49.066;8.660;2023-05-29T06:35:14;14.92;72.90
69359;HTU21D;56520;49.066;8.660;2023-05-29T06:37:40;15.00;72.59
69359;HTU21D;56520;49.066;8.660;2023-05-29T06:40:06;15.12;71.40
69359;HTU21D;56520;49.066;8.660;2023-05-29T06:42:32;15.23;71.73
69359;HTU21D;56520;49.066;8.660;2023-05-29T06:44:57;15.33;69.16
69359;HTU21D;56520;49.066;8.660;2023-05-29T06:47:23;15.47;69.11
69359;HTU21D;56520;49.066;8.660;2023-05-29T06:49:48;15.59;68.71
69359;HTU21D;56520;49.066;8.660;2023-05-29T06:52:13;15.68;66.91
69359;HTU21D;56520;49.066;8.660;2023-05-29T06:54:39;15.78;67.55
69359;HTU21D;56520;49.066;8.660;2023-05-29T06:57:04;15.92;67.53
69359;HTU21D;56520;49.066;8.660;2023-05-29T06:59:30;16.05;66.27
69359;HTU21D;56520;49.066;8.660;2023-05-29T07:01:55;16.18;66.56
69359;HTU21D;56520;49.066;8.660;2023-05-29T07:04:21;16.28;66.04
69359;HTU21D;56520;49.066;8.660;2023-05-29T07:06:46;16.35;64.85
69359;HTU21D;56520;49.066;8.660;2023-05-29T07:09:11;16.43;64.18
69359;HTU21D;56520;49.066;8.660;2023-05-29T07:11:37;16.52;64.62
69359;HTU21D;56520;49.066;8.660;2023-05-29T07:14:06;16.63;64.12
69359;HTU21D;56520;49.066;8.660;2023-05-29T07:16:32;16.73;64.13
69359;HTU21D;56520;49.066;8.660;2023-05-29T07:18:57;16.81;64.69
69359;HTU21D;56520;49.066;8.660;2023-05-29T07:21:22;16.93;63.01
69359;HTU21D;56520;49.066;8.660;2023-05-29T07:23:48;17.07;61.81
69359;HTU21D;56520;49.066;8.660;2023-05-29T07:26:13;17.16;62.57
69359;HTU21D;56520;49.066;8.660;2023-05-29T07:28:39;17.28;61.95
69359;HTU21D;56520;49.066;8.660;2023-05-29T07:31:04;17.36;62.92
69359;HTU21D;56520;49.066;8.660;2023-05-29T07:33:30;17.45;62.19
69359;HTU21D;56520;49.066;8.660;2023-05-29T07:35:55;17.51;60.54
69359;HTU21D;56520;49.066;8.660;2023-05-29T07:38:21;17.59;61.57
69359;HTU21D;56520;49.066;8.660;2023-05-29T07:40:46;17.72;61.21
69359;HTU21D;56520;49.066;8.660;2023-05-29T07:43:12;17.84;59.40
69359;HTU21D;56520;49.066;8.660;2023-05-29T07:45:37;17.93;60.71
69359;HTU21D;56520;49.066;8.660;2023-05-29T07:48:02;18.06;60.79
69359;HTU21D;56520;49.066;8.660;2023-05-29T07:50:28;18.19;60.43
69359;HTU21D;56520;49.066;8.660;2023-05-29T07:52:56;18.39;60.73
69359;HTU21D;56520;49.066;8.660;2023-05-29T07:55:22;18.55;57.91
69359;HTU21D;56520;49.066;8.660;2023-05-29T07:57:47;18.65;59.16
69359;HTU21D;56520;49.066;8.660;2023-05-29T08:00:14;18.78;59.58
69359;HTU21D;56520;49.066;8.660;2023-05-29T08:02:40;18.87;57.58
69359;HTU21D;56520;49.066;8.660;2023-05-29T08:05:05;18.98;57.43
69359;HTU21D;56520;49.066;8.660;2023-05-29T08:07:33;19.06;57.18
69359;HTU21D;56520;49.066;8.660;2023-05-29T08:09:58;19.21;56.98
69359;HTU21D;56520;49.066;8.660;2023-05-29T08:12:23;19.32;56.31
69359;HTU21D;56520;49.066;8.660;2023-05-29T08:14:49;19.45;55.94
69359;HTU21D;56520;49.066;8.660;2023-05-29T08:17:14;19.57;54.95
69359;HTU21D;56520;49.066;8.660;2023-05-29T08:19:40;19.63;55.77
69359;HTU21D;56520;49.066;8.660;2023-05-29T08:22:05;19.73;56.04
69359;HTU21D;56520;49.066;8.660;2023-05-29T08:24:31;19.90;54.87
69359;HTU21D;56520;49.066;8.660;2023-05-29T08:26:56;20.07;55.60
69359;HTU21D;56520;49.066;8.660;2023-05-29T08:29:22;20.22;54.81
69359;HTU21D;56520;49.066;8.660;2023-05-29T08:31:47;20.47;55.17
69359;HTU21D;56520;49.066;8.660;2023-05-29T08:34:13;20.62;54.15
69359;HTU21D;56520;49.066;8.660;2023-05-29T08:36:39;20.83;53.24
69359;HTU21D;56520;49.066;8.660;2023-05-29T08:39:09;21.02;53.31
69359;HTU21D;56520;49.066;8.660;2023-05-29T08:42:18;21.21;52.09
69359;HTU21D;56520;49.066;8.660;2023-05-29T08:44:23;21.35;51.27
69359;HTU21D;56520;49.066;8.660;2023-05-29T08:46:55;21.47;51.48
69359;HTU21D;56520;49.066;8.660;2023-05-29T08:49:21;21.62;50.95
69359;HTU21D;56520;49.066;8.660;2023-05-29T08:51:49;21.80;49.64
69359;HTU21D;56520;49.066;8.660;2023-05-29T08:54:17;22.03;47.06
69359;HTU21D;56520;49.066;8.660;2023-05-29T08:56:43;22.08;48.71
69359;HTU21D;56520;49.066;8.660;2023-05-29T08:59:09;22.36;49.31
69359;HTU21D;56520;49.066;8.660;2023-05-29T09:01:37;22.71;47.96
69359;HTU21D;56520;49.066;8.660;2023-05-29T09:04:04;22.88;46.32
69359;HTU21D;56520;49.066;8.660;2023-05-29T09:06:30;23.23;47.73
69359;HTU21D;56520;49.066;8.660;2023-05-29T09:08:56;23.71;45.77
69359;HTU21D;56520;49.066;8.660;2023-05-29T09:11:23;23.98;46.62
69359;HTU21D;56520;49.066;8.660;2023-05-29T09:13:48;24.39;45.74
69359;HTU21D;56520;49.066;8.660;2023-05-29T09:16:16;24.56;44.70
69359;HTU21D;56520;49.066;8.660;2023-05-29T09:18:42;24.72;43.77
69359;HTU21D;56520;49.066;8.660;2023-05-29T09:21:16;24.79;43.80
69359;HTU21D;56520;49.066;8.660;2023-05-29T09:23:52;25.00;42.20
69359;HTU21D;56520;49.066;8.660;2023-05-29T09:26:17;24.98;42.83
69359;HTU21D;56520;49.066;8.660;2023-05-29T09:28:45;25.13;43.08
69359;HTU21D;56520;49.066;8.660;2023-05-29T09:31:15;25.22;40.99
69359;HTU21D;56520;49.066;8.660;2023-05-29T09:33:48;25.00;42.48
69359;HTU21D;56520;49.066;8.660;2023-05-29T09:36:20;25.27;42.37
69359;HTU21D;56520;49.066;8.660;2023-05-29T09:38:46;25.53;39.62
69359;HTU21D;56520;49.066;8.660;2023-05-29T09:41:12;25.63;39.28
69359;HTU21D;56520;49.066;8.660;2023-05-29T09:43:38;25.68;40.79
69359;HTU21D;56520;49.066;8.660;2023-05-29T09:46:06;25.81;40.81
69359;HTU21D;56520;49.066;8.660;2023-05-29T09:48:32;26.15;41.46
69359;HTU21D;56520;49.066;8.660;2023-05-29T09:50:57;26.49;39.81
69359;HTU21D;56520;49.066;8.660;2023-05-29T09:53:24;26.75;39.79
69359;HTU21D;56520;49.066;8.660;2023-05-29T09:55:51;26.87;38.24
69359;HTU21D;56520;49.066;8.660;2023-05-29T09:58:20;26.83;37.86
69359;HTU21D;56520;49.066;8.660;2023-05-29T10:00:46;26.89;38.22
69359;HTU21D;56520;49.066;8.660;2023-05-29T10:03:14;26.99;37.09
69359;HTU21D;56520;49.066;8.660;2023-05-29T10:05:40;26.91;37.04
69359;HTU21D;56520;49.066;8.660;2023-05-29T10:08:13;27.05;37.52
69359;HTU21D;56520;49.066;8.660;2023-05-29T10:10:44;27.07;38.15
69359;HTU21D;56520;49.066;8.660;2023-05-29T10:13:12;27.27;39.14
69359;HTU21D;56520;49.066;8.660;2023-05-29T10:15:37;27.37;36.47
69359;HTU21D;56520;49.066;8.660;2023-05-29T10:18:09;27.31;34.60
69359;HTU21D;56520;49.066;8.660;2023-05-29T10:20:38;27.16;34.61
69359;HTU21D;56520;49.066;8.660;2023-05-29T10:23:04;27.04;36.73
69359;HTU21D;56520;49.066;8.660;2023-05-29T10:25:32;27.24;36.15
69359;HTU21D;56520;49.066;8.660;2023-05-29T10:27:59;27.27;34.39
69359;HTU21D;56520;49.066;8.660;2023-05-29T10:30:32;27.05;34.44
69359;HTU21D;56520;49.066;8.660;2023-05-29T10:38:19;27.27;36.47
69359;HTU21D;56520;49.066;8.660;2023-05-29T10:40:46;27.52;32.59
69359;HTU21D;56520;49.066;8.660;2023-05-29T10:43:31;27.28;36.38
69359;HTU21D;56520;49.066;8.660;2023-05-29T10:46:02;27.29;35.47
69359;HTU21D;56520;49.066;8.660;2023-05-29T10:50:56;27.74;33.95
69359;HTU21D;56520;49.066;8.660;2023-05-29T10:53:31;27.69;33.55
69359;HTU21D;56520;49.066;8.660;2023-05-29T10:55:58;27.71;34.28
69359;HTU21D;56520;49.066;8.660;2023-05-29T10:58:26;27.90;33.55
69359;HTU21D;56520;49.066;8.660;2023-05-29T11:00:52;27.84;33.11
69359;HTU21D;56520;49.066;8.660;2023-05-29T11:03:30;27.85;33.98
69359;HTU21D;56520;49.066;8.660;2023-05-29T11:06:07;28.12;33.46
69359;HTU21D;56520;49.066;8.660;2023-05-29T11:08:44;27.97;33.76
69359;HTU21D;56520;49.066;8.660;2023-05-29T11:11:15;28.04;32.99
69359;HTU21D;56520;49.066;8.660;2023-05-29T11:13:55;27.91;32.83
69359;HTU21D;56520;49.066;8.660;2023-05-29T11:18:55;27.76;32.44
69359;HTU21D;56520;49.066;8.660;2023-05-29T11:24:02;27.98;31.27
69359;HTU21D;56520;49.066;8.660;2023-05-29T11:26:29;27.83;32.07
69359;HTU21D;56520;49.066;8.660;2023-05-29T11:29:03;27.98;32.59
69359;HTU21D;56520;49.066;8.660;2023-05-29T11:31:33;28.02;32.28
69359;HTU21D;56520;49.066;8.660;2023-05-29T11:34:02;28.18;34.37
69359;HTU21D;56520;49.066;8.660;2023-05-29T11:36:31;28.21;33.75
69359;HTU21D;56520;49.066;8.660;2023-05-29T11:38:58;28.54;31.49
69359;HTU21D;56520;49.066;8.660;2023-05-29T11:41:23;28.64;32.05
69359;HTU21D;56520;49.066;8.660;2023-05-29T11:43:59;28.54;32.49
69359;HTU21D;56520;49.066;8.660;2023-05-29T11:46:27;28.73;29.56
69359;HTU21D;56520;49.066;8.660;2023-05-29T11:48:56;28.47;31.38
69359;HTU21D;56520;49.066;8.660;2023-05-29T11:51:21;28.55;32.02
69359;HTU21D;56520;49.066;8.660;2023-05-29T11:53:48;28.58;29.51
69359;HTU21D;56520;49.066;8.660;2023-05-29T11:56:14;28.58;29.92
69359;HTU21D;56520;49.066;8.660;2023-05-29T11:58:40;28.49;30.06
69359;HTU21D;56520;49.066;8.660;2023-05-29T12:01:06;28.43;30.22
69359;HTU21D;56520;49.066;8.660;2023-05-29T12:03:43;28.37;31.78
69359;HTU21D;56520;49.066;8.660;2023-05-29T12:06:09;28.57;32.41
69359;HTU21D;56520;49.066;8.660;2023-05-29T12:08:39;28.85;29.55
69359;HTU21D;56520;49.066;8.660;2023-05-29T12:11:05;28.75;28.65
69359;HTU21D;56520;49.066;8.660;2023-05-29T12:13:31;28.71;29.57
69359;HTU21D;56520;49.066;8.660;2023-05-29T12:15:57;28.73;30.44
69359;HTU21D;56520;49.066;8.660;2023-05-29T12:18:25;28.67;28.49
69359;HTU21D;56520;49.066;8.660;2023-05-29T12:20:56;28.45;29.35
69359;HTU21D;56520;49.066;8.660;2023-05-29T12:23:22;28.68;32.06
69359;HTU21D;56520;49.066;8.660;2023-05-29T12:25:48;28.82;26.97
69359;HTU21D;56520;49.066;8.660;2023-05-29T12:28:16;28.62;26.85
69359;HTU21D;56520;49.066;8.660;2023-05-29T12:30:44;28.54;29.16
69359;HTU21D;56520;49.066;8.660;2023-05-29T12:33:31;28.73;29.85
69359;HTU21D;56520;49.066;8.660;2023-05-29T12:36:08;28.98;33.83
69359;HTU21D;56520;49.066;8.660;2023-05-29T12:38:48;28.99;28.71
69359;HTU21D;56520;49.066;8.660;2023-05-29T12:43:55;28.93;28.97
69359;HTU21D;56520;49.066;8.660;2023-05-29T12:46:21;29.09;29.20
69359;HTU21D;56520;49.066;8.660;2023-05-29T12:48:47;29.24;28.37
69359;HTU21D;56520;49.066;8.660;2023-05-29T12:51:15;29.17;28.29
69359;HTU21D;56520;49.066;8.660;2023-05-29T12:53:42;29.24;28.90
69359;HTU21D;56520;49.066;8.660;2023-05-29T12:56:08;29.07;29.14
69359;HTU21D;56520;49.066;8.660;2023-05-29T12:58:33;29.01;27.09
69359;HTU21D;56520;49.066;8.660;2023-05-29T13:00:59;28.85;28.17
69359;HTU21D;56520;49.066;8.660;2023-05-29T13:03:24;28.76;28.20
69359;HTU21D;56520;49.066;8.660;2023-05-29T13:05:50;28.89;28.91
69359;HTU21D;56520;49.066;8.660;2023-05-29T13:08:16;29.00;29.54
69359;HTU21D;56520;49.066;8.660;2023-05-29T13:10:42;29.09;28.85
69359;HTU21D;56520;49.066;8.660;2023-05-29T13:13:08;29.14;29.34
69359;HTU21D;56520;49.066;8.660;2023-05-29T13:15:35;29.35;30.62
69359;HTU21D;56520;49.066;8.660;2023-05-29T13:18:00;29.50;27.29
69359;HTU21D;56520;49.066;8.660;2023-05-29T13:20:26;29.15;27.36
69359;HTU21D;56520;49.066;8.660;2023-05-29T13:22:51;28.86;29.03
69359;HTU21D;56520;49.066;8.660;2023-05-29T13:25:19;29.09;30.42
69359;HTU21D;56520;49.066;8.660;2023-05-29T13:27:49;29.42;29.23
69359;HTU21D;56520;49.066;8.660;2023-05-29T13:30:15;29.49;29.81
69359;HTU21D;56520;49.066;8.660;2023-05-29T13:32:41;29.28;27.26
69359;HTU21D;56520;49.066;8.660;2023-05-29T13:35:07;29.00;26.97
69359;HTU21D;56520;49.066;8.660;2023-05-29T13:37:33;28.79;26.88
69359;HTU21D;56520;49.066;8.660;2023-05-29T13:39:59;28.57;28.33
69359;HTU21D;56520;49.066;8.660;2023-05-29T13:42:24;28.85;28.36
69359;HTU21D;56520;49.066;8.660;2023-05-29T13:44:50;29.15;29.42
69359;HTU21D;56520;49.066;8.660;2023-05-29T13:47:16;29.45;29.13
69359;HTU21D;56520;49.066;8.660;2023-05-29T13:49:42;29.66;27.85
69359;HTU21D;56520;49.066;8.660;2023-05-29T13:52:07;29.67;28.12
69359;HTU21D;56520;49.066;8.660;2023-05-29T13:54:33;29.76;27.89
69359;HTU21D;56520;49.066;8.660;2023-05-29T13:57:04;29.82;27.87
69359;HTU21D;56520;49.066;8.660;2023-05-29T13:59:31;29.94;26.68
69359;HTU21D;56520;49.066;8.660;2023-05-29T14:01:56;29.54;25.23
69359;HTU21D;56520;49.066;8.660;2023-05-29T14:04:22;29.26;27.44
69359;HTU21D;56520;49.066;8.660;2023-05-29T14:06:47;29.33;26.50
69359;HTU21D;56520;49.066;8.660;2023-05-29T14:09:13;29.17;26.97
69359;HTU21D;56520;49.066;8.660;2023-05-29T14:11:39;29.20;29.19
69359;HTU21D;56520;49.066;8.660;2023-05-29T14:14:05;29.33;28.40
69359;HTU21D;56520;49.066;8.660;2023-05-29T14:16:31;29.46;28.18
69359;HTU21D;56520;49.066;8.660;2023-05-29T14:18:57;29.62;27.84
69359;HTU21D;56520;49.066;8.660;2023-05-29T14:21:23;29.58;26.17
69359;HTU21D;56520;49.066;8.660;2023-05-29T14:23:48;29.22;27.05
69359;HTU21D;56520;49.066;8.660;2023-05-29T14:26:13;29.13;26.86
69359;HTU21D;56520;49.066;8.660;2023-05-29T14:28:39;29.07;26.28
69359;HTU21D;56520;49.066;8.660;2023-05-29T14:31:05;28.98;26.77
69359;HTU21D;56520;49.066;8.660;2023-05-29T14:33:31;29.11;27.17
69359;HTU21D;56520;49.066;8.660;2023-05-29T14:35:56;29.21;27.10
69359;HTU21D;56520;49.066;8.660;2023-05-29T14:38:23;29.57;26.71
69359;HTU21D;56520;49.066;8.660;2023-05-29T14:40:48;29.89;25.72
69359;HTU21D;56520;49.066;8.660;2023-05-29T14:43:14;30.06;25.42
69359;HTU21D;56520;49.066;8.660;2023-05-29T14:45:39;29.95;23.99
69359;HTU21D;56520;49.066;8.660;2023-05-29T14:48:05;29.83;26.03
69359;HTU21D;56520;49.066;8.660;2023-05-29T14:50:30;30.04;26.33
69359;HTU21D;56520;49.066;8.660;2023-05-29T14:52:55;30.13;26.07
69359;HTU21D;56520;49.066;8.660;2023-05-29T14:55:21;30.08;25.17
69359;HTU21D;56520;49.066;8.660;2023-05-29T14:57:46;29.75;26.42
69359;HTU21D;56520;49.066;8.660;2023-05-29T15:00:12;29.70;26.79
69359;HTU21D;56520;49.066;8.660;2023-05-29T15:02:37;29.80;27.00
69359;HTU21D;56520;49.066;8.660;2023-05-29T15:05:05;29.68;26.33
69359;HTU21D;56520;49.066;8.660;2023-05-29T15:07:32;29.50;25.01
69359;HTU21D;56520;49.066;8.660;2023-05-29T15:09:59;29.20;27.28
69359;HTU21D;56520;49.066;8.660;2023-05-29T15:12:26;29.08;26.11
69359;HTU21D;56520;49.066;8.660;2023-05-29T15:14:51;28.99;27.04
69359;HTU21D;56520;49.066;8.660;2023-05-29T15:17:17;29.14;26.86
69359;HTU21D;56520;49.066;8.660;2023-05-29T15:19:43;29.27;26.83
69359;HTU21D;56520;49.066;8.660;2023-05-29T15:22:08;29.34;26.59
69359;HTU21D;56520;49.066;8.660;2023-05-29T15:24:34;29.31;26.84
69359;HTU21D;56520;49.066;8.660;2023-05-29T15:26:59;29.47;26.91
69359;HTU21D;56520;49.066;8.660;2023-05-29T15:29:24;29.62;25.59
69359;HTU21D;56520;49.066;8.660;2023-05-29T15:31:50;29.96;25.36
69359;HTU21D;56520;49.066;8.660;2023-05-29T15:34:15;30.47;24.11
69359;HTU21D;56520;49.066;8.660;2023-05-29T15:36:41;30.47;24.34
69359;HTU21D;56520;49.066;8.660;2023-05-29T15:39:06;31.02;23.58
69359;HTU21D;56520;49.066;8.660;2023-05-29T15:41:32;31.54;22.27
69359;HTU21D;56520;49.066;8.660;2023-05-29T15:43:57;31.82;24.06
69359;HTU21D;56520;49.066;8.660;2023-05-29T15:46:26;31.81;22.41